createdAt,value
2019-04-27T00:01:05.200Z,9.67
2019-04-27T00:03:41.398Z,9.58
2019-04-27T00:06:13.526Z,9.82
2019-04-27T00:08:47.994Z,9.87
2019-04-27T00:11:23.099Z,9.92
2019-04-27T00:13:53.602Z,9.92
2019-04-27T00:16:47.023Z,10.25
2019-04-27T00:19:31.701Z,10.56
2019-04-27T00:22:03.152Z,10.35
2019-04-27T00:24:33.568Z,10.41
2019-04-27T00:27:03.300Z,10.41
2019-04-27T00:29:33.194Z,10.61
2019-04-27T00:32:04.285Z,10.56
2019-04-27T00:34:33.966Z,10.57
2019-04-27T00:37:13.634Z,10.52
2019-04-27T00:39:53.298Z,10.48
2019-04-27T00:42:23.182Z,10.52
2019-04-27T00:44:54.106Z,10.58
2019-04-27T00:47:23.864Z,10.55
2019-04-27T00:49:54.998Z,10.47
2019-04-27T00:52:24.110Z,10.47
2019-04-27T00:54:53.910Z,10.47
2019-04-27T00:57:45.795Z,10.53
2019-04-27T01:00:33.741Z,10.57
2019-04-27T01:03:09.866Z,10.59
2019-04-27T01:05:39.009Z,10.47
2019-04-27T01:08:07.998Z,10.17
2019-04-27T01:10:37.106Z,10.24
2019-04-27T01:13:06.657Z,10.48
2019-04-27T01:15:35.718Z,10.30
2019-04-27T01:18:11.952Z,10.30
2019-04-27T01:20:36.167Z,10.38
2019-04-27T01:23:05.272Z,10.38
2019-04-27T01:26:03.294Z,10.36
2019-04-27T01:28:41.059Z,10.29
2019-04-27T01:31:11.662Z,10.17
2019-04-27T01:33:40.748Z,10.20
2019-04-27T01:36:10.784Z,10.18
2019-04-27T01:38:41.259Z,10.11
2019-04-27T01:41:10.334Z,9.99
2019-04-27T01:43:39.414Z,9.77
2019-04-27T01:46:09.162Z,9.96
2019-04-27T01:48:38.697Z,9.90
2019-04-27T01:51:09.219Z,9.70
2019-04-27T01:53:39.091Z,9.70
2019-04-27T01:56:09.193Z,9.79
2019-04-27T01:58:40.694Z,9.89
2019-04-27T02:01:29.267Z,9.98
2019-04-27T02:04:09.238Z,9.67
2019-04-27T02:06:38.634Z,9.67
2019-04-27T02:09:10.068Z,9.73
2019-04-27T02:11:39.214Z,9.36
2019-04-27T02:14:09.505Z,9.78
2019-04-27T02:16:39.215Z,9.68
2019-04-27T02:19:09.008Z,9.68
2019-04-27T02:21:39.352Z,9.68
2019-04-27T02:24:09.722Z,9.82
2019-04-27T02:26:39.892Z,9.82
2019-04-27T02:29:23.815Z,9.95
2019-04-27T02:32:14.670Z,10.05
2019-04-27T02:34:50.489Z,9.96
2019-04-27T02:37:20.114Z,10.00
2019-04-27T02:39:50.100Z,9.83
2019-04-27T02:42:20.230Z,9.95
2019-04-27T02:44:49.638Z,9.93
2019-04-27T02:47:20.752Z,9.85
2019-04-27T02:49:50.788Z,9.85
2019-04-27T02:52:35.419Z,9.92
2019-04-27T02:55:05.966Z,9.96
2019-04-27T02:57:34.982Z,9.95
2019-04-27T03:00:05.165Z,9.91
2019-04-27T03:02:40.125Z,10.00
2019-04-27T03:05:10.875Z,10.03
2019-04-27T03:07:42.669Z,10.14
2019-04-27T03:10:11.234Z,10.05
2019-04-27T03:12:45.689Z,10.13
2019-04-27T03:15:42.827Z,10.06
2019-04-27T03:18:16.111Z,10.11
2019-04-27T03:20:54.321Z,10.29
2019-04-27T03:23:23.494Z,10.35
2019-04-27T03:26:00.370Z,10.34
2019-04-27T03:28:29.975Z,10.14
2019-04-27T03:31:02.452Z,10.17
2019-04-27T03:33:32.575Z,10.16
2019-04-27T03:36:03.040Z,10.22
2019-04-27T03:38:32.444Z,10.22
2019-04-27T03:41:01.621Z,10.21
2019-04-27T03:43:30.785Z,10.21
2019-04-27T03:46:00.642Z,10.12
2019-04-27T03:48:29.991Z,10.15
2019-04-27T03:51:17.041Z,10.11
2019-04-27T03:54:00.174Z,10.11
2019-04-27T03:56:31.784Z,10.14
2019-04-27T03:59:09.813Z,10.14
2019-04-27T04:01:39.593Z,10.13
2019-04-27T04:04:10.372Z,10.00
2019-04-27T04:06:40.230Z,10.04
2019-04-27T04:09:11.000Z,10.03
2019-04-27T04:11:55.592Z,10.06
2019-04-27T04:14:25.008Z,10.06
2019-04-27T04:16:59.954Z,10.03
2019-04-27T04:19:29.637Z,10.07
2019-04-27T04:21:59.826Z,10.13
2019-04-27T04:24:31.693Z,10.07
2019-04-27T04:27:00.170Z,10.11
2019-04-27T04:29:30.713Z,10.06
2019-04-27T04:32:00.573Z,10.15
2019-04-27T04:34:30.042Z,10.08
2019-04-27T04:37:00.509Z,10.09
2019-04-27T04:39:29.915Z,10.09
2019-04-27T04:42:26.047Z,10.21
2019-04-27T04:45:17.197Z,10.20
2019-04-27T04:47:50.328Z,10.13
2019-04-27T04:50:20.296Z,10.21
2019-04-27T04:52:50.231Z,10.22
2019-04-27T04:55:20.342Z,10.22
2019-04-27T04:57:49.816Z,10.25
2019-04-27T05:00:19.903Z,10.27
2019-04-27T05:02:49.329Z,10.27
2019-04-27T05:05:19.366Z,10.21
2019-04-27T05:07:48.697Z,10.23
2019-04-27T05:10:18.864Z,10.33
2019-04-27T05:12:49.038Z,10.27
2019-04-27T05:15:20.648Z,10.37
2019-04-27T05:17:51.059Z,10.30
2019-04-27T05:20:26.482Z,10.33
2019-04-27T05:22:55.482Z,10.25
2019-04-27T05:25:25.843Z,10.21
2019-04-27T05:27:54.830Z,10.21
2019-04-27T05:30:23.831Z,10.22
2019-04-27T05:32:52.803Z,10.32
2019-04-27T05:35:21.803Z,10.17
2019-04-27T05:37:50.797Z,10.28
2019-04-27T05:40:19.783Z,10.25
2019-04-27T05:42:55.089Z,10.20
2019-04-27T05:46:44.268Z,10.24
2019-04-27T05:49:18.851Z,10.13
2019-04-27T05:51:50.149Z,9.96
2019-04-27T05:54:19.616Z,10.09
2019-04-27T05:56:49.258Z,10.18
2019-04-27T05:59:19.830Z,10.25
2019-04-27T06:01:49.355Z,10.20
2019-04-27T06:04:19.348Z,10.20
2019-04-27T06:06:49.877Z,10.24
2019-04-27T06:09:19.524Z,10.24
2019-04-27T06:11:50.672Z,10.29
2019-04-27T06:14:19.439Z,10.29
2019-04-27T06:16:51.029Z,10.17
2019-04-27T06:19:19.405Z,10.21
2019-04-27T06:21:49.986Z,10.15
2019-04-27T06:24:19.183Z,10.15
2019-04-27T06:26:49.843Z,10.18
2019-04-27T06:29:19.510Z,10.15
2019-04-27T06:31:49.636Z,10.15
2019-04-27T06:34:19.497Z,9.98
2019-04-27T06:36:48.751Z,10.05
2019-04-27T06:39:20.281Z,10.01
2019-04-27T06:41:49.142Z,10.01
2019-04-27T06:44:19.600Z,9.99
2019-04-27T06:46:49.095Z,10.02
2019-04-27T06:49:19.455Z,10.02
2019-04-27T06:51:49.763Z,10.01
2019-04-27T06:54:19.769Z,10.01
2019-04-27T06:56:50.431Z,10.13
2019-04-27T06:59:20.699Z,10.19
2019-04-27T07:01:49.723Z,10.19
2019-04-27T07:04:19.588Z,10.24
2019-04-27T07:06:55.404Z,10.18
2019-04-27T07:09:19.870Z,10.18
2019-04-27T07:11:49.491Z,10.23
2019-04-27T07:14:19.691Z,10.07
2019-04-27T07:16:50.680Z,10.12
2019-04-27T07:19:20.257Z,10.12
2019-04-27T07:21:49.770Z,10.12
2019-04-27T07:24:19.642Z,10.12
2019-04-27T07:26:48.907Z,10.15
2019-04-27T07:29:19.518Z,10.19
2019-04-27T07:31:49.565Z,10.23
2019-04-27T07:34:19.096Z,10.24
2019-04-27T07:36:49.148Z,10.22
2019-04-27T07:39:19.255Z,10.22
2019-04-27T07:41:48.860Z,10.19
2019-04-27T07:44:30.181Z,10.15
2019-04-27T07:47:19.588Z,10.23
2019-04-27T07:49:49.678Z,10.09
2019-04-27T07:52:20.412Z,9.76
2019-04-27T07:54:49.815Z,9.33
2019-04-27T07:57:19.741Z,9.35
2019-04-27T07:59:50.129Z,9.30
2019-04-27T08:02:19.486Z,9.38
2019-04-27T08:04:50.432Z,9.44
2019-04-27T08:07:19.806Z,9.19
2019-04-27T08:09:49.673Z,9.35
2019-04-27T08:12:20.919Z,9.28
2019-04-27T08:14:49.783Z,9.32
2019-04-27T08:17:19.307Z,9.32
2019-04-27T08:19:49.549Z,9.48
2019-04-27T08:22:19.577Z,9.63
2019-04-27T08:24:49.741Z,9.75
2019-04-27T08:27:29.334Z,9.87
2019-04-27T08:30:09.545Z,9.82
2019-04-27T08:32:41.569Z,9.83
2019-04-27T08:35:10.877Z,9.90
2019-04-27T08:37:39.967Z,9.95
2019-04-27T08:40:11.283Z,10.19
2019-04-27T08:42:40.370Z,10.32
2019-04-27T08:45:09.596Z,10.57
2019-04-27T08:47:39.420Z,10.60
2019-04-27T08:50:10.249Z,10.60
2019-04-27T08:52:41.795Z,10.55
2019-04-27T08:55:11.447Z,10.55
2019-04-27T08:57:40.462Z,10.57
2019-04-27T09:00:09.948Z,10.56
2019-04-27T09:02:44.799Z,10.56
2019-04-27T09:05:10.760Z,10.76
2019-04-27T09:07:59.769Z,10.80
2019-04-27T09:10:46.235Z,11.03
2019-04-27T09:13:30.513Z,11.03
2019-04-27T09:16:22.323Z,11.03
2019-04-27T09:18:53.163Z,11.04
2019-04-27T09:21:22.363Z,11.35
2019-04-27T09:23:51.385Z,11.37
2019-04-27T09:26:20.421Z,11.50
2019-04-27T09:28:51.238Z,11.65
2019-04-27T09:31:20.263Z,11.99
2019-04-27T09:33:49.453Z,11.81
2019-04-27T09:36:18.576Z,11.51
2019-04-27T09:39:01.488Z,11.66
2019-04-27T09:41:30.503Z,12.18
2019-04-27T09:44:02.421Z,12.87
2019-04-27T09:46:33.384Z,12.55
2019-04-27T09:49:02.482Z,12.76
2019-04-27T09:51:31.657Z,12.75
2019-04-27T09:54:00.819Z,12.58
2019-04-27T09:56:29.884Z,13.07
2019-04-27T09:58:59.062Z,13.00
2019-04-27T10:01:29.404Z,13.82
2019-04-27T10:04:00.678Z,13.82
2019-04-27T10:06:30.109Z,12.77
2019-04-27T10:09:00.430Z,12.63
2019-04-27T10:11:29.564Z,13.09
2019-04-27T10:13:58.802Z,13.80
2019-04-27T10:16:27.986Z,13.80
2019-04-27T10:18:57.040Z,12.69
2019-04-27T10:21:26.455Z,12.80
2019-04-27T10:23:56.781Z,12.80
2019-04-27T10:26:26.027Z,12.28
2019-04-27T10:28:56.004Z,12.28
2019-04-27T10:31:25.190Z,12.58
2019-04-27T10:33:55.819Z,13.22
2019-04-27T10:36:40.418Z,12.55
2019-04-27T10:39:17.067Z,12.45
2019-04-27T10:41:46.460Z,12.45
2019-04-27T10:44:16.261Z,12.23
2019-04-27T10:46:48.620Z,12.29
2019-04-27T10:49:17.726Z,12.23
2019-04-27T10:51:46.778Z,12.39
2019-04-27T10:54:17.129Z,13.00
2019-04-27T10:56:46.240Z,13.70
2019-04-27T10:59:16.462Z,13.63
2019-04-27T11:01:47.715Z,14.45
2019-04-27T11:04:29.422Z,14.22
2019-04-27T11:06:57.326Z,13.95
2019-04-27T11:09:28.713Z,13.74
2019-04-27T11:11:59.004Z,13.74
2019-04-27T11:14:28.069Z,13.66
2019-04-27T11:16:57.351Z,13.56
2019-04-27T11:19:28.602Z,14.09
2019-04-27T11:21:57.727Z,14.64
2019-04-27T11:24:26.836Z,14.74
2019-04-27T11:26:56.701Z,14.66
2019-04-27T11:29:27.595Z,14.71
2019-04-27T11:31:56.953Z,14.71
2019-04-27T11:34:45.910Z,15.03
2019-04-27T11:37:17.683Z,14.93
2019-04-27T11:39:47.105Z,14.55
2019-04-27T11:42:17.563Z,14.67
2019-04-27T11:44:47.119Z,14.99
2019-04-27T11:47:16.353Z,14.30
2019-04-27T11:49:45.725Z,13.76
2019-04-27T11:52:15.754Z,13.39
2019-04-27T11:54:57.403Z,13.39
2019-04-27T11:57:26.517Z,12.77
2019-04-27T11:59:56.311Z,11.25
2019-04-27T12:02:26.410Z,12.63
2019-04-27T12:04:56.815Z,12.71
2019-04-27T12:07:26.330Z,12.71
2019-04-27T12:09:55.654Z,12.99
2019-04-27T12:12:26.117Z,12.90
2019-04-27T12:14:56.155Z,12.90
2019-04-27T12:17:27.620Z,12.34
2019-04-27T12:19:56.080Z,11.68
2019-04-27T12:22:25.088Z,10.81
2019-04-27T12:24:54.119Z,11.26
2019-04-27T12:27:47.187Z,11.26
2019-04-27T12:30:26.048Z,13.10
2019-04-27T12:32:55.842Z,13.23
2019-04-27T12:35:25.687Z,12.65
2019-04-27T12:37:56.019Z,12.83
2019-04-27T12:40:26.824Z,13.01
2019-04-27T12:42:56.185Z,12.81
2019-04-27T12:45:26.683Z,12.57
2019-04-27T12:47:56.561Z,12.88
2019-04-27T12:50:26.906Z,13.26
2019-04-27T12:52:59.367Z,13.26
2019-04-27T12:55:50.765Z,12.65
2019-04-27T12:58:28.235Z,12.52
2019-04-27T13:00:57.742Z,12.52
2019-04-27T13:03:26.775Z,10.79
2019-04-27T13:05:55.981Z,11.22
2019-04-27T13:08:26.030Z,10.95
2019-04-27T13:10:57.281Z,10.79
2019-04-27T13:13:26.830Z,11.15
2019-04-27T13:15:56.424Z,12.02
2019-04-27T13:18:25.896Z,12.26
2019-04-27T13:20:54.938Z,12.36
2019-04-27T13:23:24.136Z,12.07
2019-04-27T13:25:53.232Z,11.91
2019-04-27T13:28:22.262Z,12.03
2019-04-27T13:30:51.371Z,11.86
2019-04-27T13:33:20.390Z,11.82
2019-04-27T13:35:49.469Z,11.85
2019-04-27T13:38:18.464Z,11.97
2019-04-27T13:41:05.865Z,11.97
2019-04-27T13:43:36.540Z,12.07
2019-04-27T13:46:25.901Z,12.18
2019-04-27T13:49:12.815Z,12.16
2019-04-27T13:51:50.404Z,11.67
2019-04-27T13:54:26.117Z,11.88
2019-04-27T13:56:50.275Z,11.81
2019-04-27T13:59:19.301Z,11.71
2019-04-27T14:01:48.497Z,11.74
2019-04-27T14:04:17.558Z,11.74
2019-04-27T14:06:46.622Z,11.72
2019-04-27T14:09:15.740Z,11.69
2019-04-27T14:11:44.880Z,11.58
2019-04-27T14:14:14.032Z,11.59
2019-04-27T14:16:43.883Z,11.62
2019-04-27T14:19:13.145Z,11.36
2019-04-27T14:21:45.156Z,11.31
2019-04-27T14:24:27.529Z,11.67
2019-04-27T14:26:48.459Z,11.80
2019-04-27T14:29:18.914Z,11.70
2019-04-27T14:31:49.726Z,11.90
2019-04-27T14:34:19.060Z,11.90
2019-04-27T14:36:48.847Z,11.80
2019-04-27T14:39:19.556Z,12.45
2019-04-27T14:41:49.166Z,12.19
2019-04-27T14:44:18.776Z,11.82
2019-04-27T14:46:48.561Z,12.15
2019-04-27T14:49:19.770Z,12.15
2019-04-27T14:51:48.746Z,11.90
2019-04-27T14:54:17.859Z,12.01
2019-04-27T14:56:49.459Z,12.01
2019-04-27T14:59:18.824Z,11.64
2019-04-27T15:01:48.763Z,11.58
2019-04-27T15:04:17.988Z,11.42
2019-04-27T15:06:47.094Z,11.25
2019-04-27T15:09:18.074Z,11.63
2019-04-27T15:11:49.203Z,12.12
2019-04-27T15:14:20.761Z,12.63
2019-04-27T15:16:49.735Z,12.08
2019-04-27T15:19:25.000Z,12.05
2019-04-27T15:21:58.548Z,11.89
2019-04-27T15:24:28.712Z,11.91
2019-04-27T15:26:58.967Z,11.22
2019-04-27T15:29:30.214Z,11.13
2019-04-27T15:32:04.208Z,11.11
2019-04-27T15:34:48.059Z,10.94
2019-04-27T15:37:39.325Z,11.04
2019-04-27T15:40:38.304Z,11.07
2019-04-27T15:43:15.729Z,11.07
2019-04-27T15:45:44.812Z,11.02
2019-04-27T15:48:15.655Z,11.03
2019-04-27T15:50:51.827Z,11.60
2019-04-27T15:53:20.919Z,12.31
2019-04-27T15:55:53.634Z,12.37
2019-04-27T15:58:25.065Z,12.25
2019-04-27T16:00:56.365Z,12.00
2019-04-27T16:03:26.770Z,11.86
2019-04-27T16:05:53.418Z,11.73
2019-04-27T16:08:22.589Z,11.89
2019-04-27T16:10:51.747Z,11.91
2019-04-27T16:13:20.759Z,11.67
2019-04-27T16:15:54.092Z,11.54
2019-04-27T16:18:20.531Z,11.40
2019-04-27T16:20:49.635Z,11.66
2019-04-27T16:23:18.811Z,11.65
2019-04-27T16:25:49.479Z,11.75
2019-04-27T16:28:18.669Z,12.26
2019-04-27T16:30:50.523Z,11.43
2019-04-27T16:33:22.093Z,11.84
2019-04-27T16:35:53.210Z,11.69
2019-04-27T16:38:33.548Z,11.55
2019-04-27T16:40:59.671Z,11.32
2019-04-27T16:43:32.652Z,11.32
2019-04-27T16:46:04.293Z,11.18
2019-04-27T16:48:34.707Z,11.25
2019-04-27T16:51:01.320Z,11.25
2019-04-27T16:53:39.445Z,11.37
2019-04-27T16:56:14.256Z,11.37
2019-04-27T16:58:39.488Z,11.31
2019-04-27T17:01:18.628Z,11.08
2019-04-27T17:03:48.494Z,11.08
2019-04-27T17:06:19.081Z,10.51
2019-04-27T17:08:49.664Z,9.67
2019-04-27T17:11:19.622Z,9.67
2019-04-27T17:13:54.003Z,9.61
2019-04-27T17:16:42.685Z,9.61
2019-04-27T17:19:16.338Z,9.56
2019-04-27T17:21:45.360Z,10.03
2019-04-27T17:24:18.031Z,10.03
2019-04-27T17:26:47.869Z,9.67
2019-04-27T17:29:20.355Z,9.88
2019-04-27T17:31:55.183Z,9.90
2019-04-27T17:34:25.320Z,10.05
2019-04-27T17:36:54.879Z,10.23
2019-04-27T17:39:24.766Z,10.20
2019-04-27T17:41:54.063Z,10.20
2019-04-27T17:44:23.367Z,9.99
2019-04-27T17:46:52.657Z,10.23
2019-04-27T17:49:21.676Z,10.23
2019-04-27T17:51:50.687Z,9.59
2019-04-27T17:54:19.733Z,9.65
2019-04-27T17:56:52.310Z,9.53
2019-04-27T17:59:20.919Z,9.63
2019-04-27T18:01:53.956Z,9.77
2019-04-27T18:04:21.049Z,9.76
2019-04-27T18:06:55.671Z,9.35
2019-04-27T18:09:24.361Z,9.58
2019-04-27T18:11:54.444Z,9.40
2019-04-27T18:14:23.743Z,9.40
2019-04-27T18:16:55.708Z,9.76
2019-04-27T18:19:33.289Z,9.76
2019-04-27T18:22:05.487Z,9.86
2019-04-27T18:24:48.218Z,9.72
2019-04-27T18:27:24.756Z,9.89
2019-04-27T18:29:59.288Z,9.89
2019-04-27T18:32:27.667Z,9.99
2019-04-27T18:34:58.446Z,10.08
2019-04-27T18:37:29.014Z,10.00
2019-04-27T18:39:58.569Z,9.90
2019-04-27T18:42:31.138Z,10.02
2019-04-27T18:45:06.001Z,9.99
2019-04-27T18:47:31.240Z,9.99
2019-04-27T18:50:25.186Z,9.97
2019-04-27T18:52:58.444Z,9.83
2019-04-27T18:55:28.957Z,10.13
2019-04-27T18:57:59.623Z,10.10
2019-04-27T19:00:29.479Z,9.92
2019-04-27T19:02:58.751Z,10.14
2019-04-27T19:05:38.014Z,9.91
2019-04-27T19:08:17.819Z,9.93
2019-04-27T19:10:47.008Z,9.93
2019-04-27T19:13:16.140Z,9.89
2019-04-27T19:15:57.940Z,9.88
2019-04-27T19:18:29.903Z,10.09
2019-04-27T19:21:39.331Z,10.18
2019-04-27T19:24:30.171Z,9.97
2019-04-27T19:36:59.930Z,9.90
2019-04-27T19:39:49.773Z,9.72
2019-04-27T19:45:53.634Z,9.77
2019-04-27T19:48:22.805Z,9.76
2019-04-27T19:50:52.109Z,9.71
2019-04-27T19:53:21.553Z,9.71
2019-04-27T19:56:11.478Z,9.76
2019-04-27T19:59:23.777Z,9.69
2019-04-27T20:10:43.172Z,9.63
2019-04-27T20:11:22.354Z,9.63
2019-04-27T20:14:14.448Z,9.86
2019-04-27T20:16:43.819Z,9.91
2019-04-27T20:19:13.003Z,9.91
2019-04-27T20:21:42.286Z,9.73
2019-04-27T20:24:11.836Z,9.73
2019-04-27T20:26:44.243Z,9.70
2019-04-27T20:30:12.141Z,9.85
2019-04-27T20:33:41.671Z,9.83
2019-04-27T20:39:59.095Z,9.65
2019-04-27T20:42:28.188Z,9.74
2019-04-27T20:44:57.286Z,9.60
2019-04-27T20:47:26.398Z,9.60
2019-04-27T20:49:55.418Z,9.01
2019-04-27T20:52:59.978Z,9.01
2019-04-27T20:55:32.607Z,8.49
2019-04-27T20:58:02.811Z,8.30
2019-04-27T21:00:38.634Z,8.28
2019-04-27T21:03:47.357Z,8.11
2019-04-27T21:06:32.491Z,8.25
2019-04-27T21:09:06.529Z,8.44
2019-04-27T21:11:49.333Z,8.45
2019-04-27T21:14:21.609Z,8.64
2019-04-27T21:16:51.661Z,8.68
2019-04-27T21:19:25.723Z,8.73
2019-04-27T21:21:57.888Z,8.71
2019-04-27T21:24:27.004Z,8.47
2019-04-27T21:26:56.405Z,8.31
2019-04-27T21:29:26.277Z,8.35
2019-04-27T21:32:21.159Z,8.35
2019-04-27T21:34:51.510Z,8.38
2019-04-27T21:37:20.880Z,8.47
2019-04-27T21:40:33.929Z,8.47
2019-04-27T21:43:03.075Z,8.68
2019-04-27T21:45:38.105Z,8.68
2019-04-27T21:48:14.550Z,8.46
2019-04-27T21:51:37.499Z,8.80
2019-04-27T21:54:32.695Z,8.80
2019-04-27T21:57:07.406Z,8.46
2019-04-27T21:59:38.266Z,8.73
2019-04-27T22:02:09.250Z,8.61
2019-04-27T22:05:01.329Z,8.59
2019-04-27T22:07:58.097Z,8.54
2019-04-27T22:10:33.675Z,8.43
2019-04-27T22:13:02.849Z,8.43
2019-04-27T22:15:44.915Z,8.43
2019-04-27T22:18:14.110Z,8.56
2019-04-27T22:20:52.064Z,8.33
2019-04-27T22:23:41.800Z,8.33
2019-04-27T22:26:11.325Z,8.47
2019-04-27T22:28:47.141Z,8.24
2019-04-27T22:31:14.399Z,7.98
2019-04-27T22:33:43.572Z,8.24
2019-04-27T22:36:55.531Z,8.09
2019-04-27T22:47:11.426Z,8.21
2019-04-27T22:50:17.326Z,7.80
2019-04-27T22:52:46.479Z,8.06
2019-04-27T22:55:15.460Z,8.06
2019-04-27T22:57:54.984Z,7.80
2019-04-27T23:01:01.563Z,7.72
2019-04-27T23:06:15.623Z,7.71
2019-04-27T23:08:47.945Z,7.86
2019-04-27T23:11:32.481Z,7.50
2019-04-27T23:14:11.136Z,7.45
2019-04-27T23:16:45.335Z,7.48
2019-04-27T23:19:17.786Z,7.48
2019-04-27T23:34:52.659Z,7.79
2019-04-27T23:40:07.368Z,7.84
2019-04-27T23:45:09.596Z,7.99
2019-04-27T23:48:58.431Z,7.85
2019-04-27T23:52:26.287Z,8.02
2019-04-27T23:54:43.085Z,8.03
2019-04-27T23:57:12.213Z,7.94
